createdAt,value
2023-05-12T00:04:07.188Z,14.19
2023-05-12T00:09:27.965Z,14.16
2023-05-12T00:14:48.596Z,14.18
2023-05-12T00:20:09.673Z,14.13
2023-05-12T00:25:30.423Z,14.10
2023-05-12T00:30:50.853Z,14.07
2023-05-12T00:36:11.462Z,13.91
2023-05-12T00:41:32.211Z,13.76
2023-05-12T00:46:53.076Z,13.68
2023-05-12T00:52:13.864Z,13.64
2023-05-12T00:57:34.427Z,13.51
2023-05-12T01:02:58.520Z,13.39
2023-05-12T01:08:21.525Z,13.28
2023-05-12T01:13:42.611Z,13.18
2023-05-12T01:19:05.393Z,13.01
2023-05-12T01:24:26.777Z,12.89
2023-05-12T01:29:47.765Z,12.81
2023-05-12T01:35:10.917Z,12.73
2023-05-12T01:40:35.482Z,12.67
2023-05-12T01:45:56.654Z,12.50
2023-05-12T01:51:17.451Z,12.28
2023-05-12T01:56:38.335Z,12.18
2023-05-12T02:01:58.927Z,12.12
2023-05-12T02:07:24.139Z,12.11
2023-05-12T02:12:45.021Z,12.11
2023-05-12T02:18:05.972Z,12.18
2023-05-12T02:23:26.727Z,12.21
2023-05-12T02:28:47.726Z,12.19
2023-05-12T02:34:08.994Z,12.05
2023-05-12T02:39:29.562Z,11.98
2023-05-12T02:44:50.650Z,11.84
2023-05-12T02:50:11.655Z,11.73
2023-05-12T02:55:32.459Z,11.66
2023-05-12T03:01:03.168Z,11.63
2023-05-12T03:06:30.281Z,11.56
2023-05-12T03:11:50.942Z,11.54
2023-05-12T03:17:11.596Z,11.50
2023-05-12T03:22:32.305Z,11.46
2023-05-12T03:27:53.076Z,11.44
2023-05-12T03:33:13.752Z,11.50
2023-05-12T03:38:34.541Z,11.58
2023-05-12T03:43:55.471Z,11.62
2023-05-12T03:49:16.077Z,11.76
2023-05-12T03:54:38.036Z,11.97
2023-05-12T03:59:59.189Z,12.28
2023-05-12T04:05:19.723Z,12.65
2023-05-12T04:10:40.953Z,12.84
2023-05-12T04:16:01.579Z,13.04
2023-05-12T04:21:23.290Z,13.20
2023-05-12T04:26:43.837Z,13.57
2023-05-12T04:32:04.838Z,14.04
2023-05-12T04:37:26.233Z,14.56
2023-05-12T04:42:47.701Z,14.91
2023-05-12T04:48:09.631Z,15.40
2023-05-12T04:53:34.572Z,15.99
2023-05-12T04:58:55.825Z,16.36
2023-05-12T05:04:17.213Z,16.38
2023-05-12T05:09:38.463Z,16.68
2023-05-12T05:14:59.484Z,17.08
2023-05-12T05:20:20.771Z,17.36
2023-05-12T05:25:42.187Z,17.60
2023-05-12T05:31:03.636Z,18.10
2023-05-12T05:36:29.943Z,18.82
2023-05-12T05:41:52.473Z,19.22
2023-05-12T05:47:13.931Z,19.63
2023-05-12T05:52:36.011Z,19.95
2023-05-12T05:57:58.296Z,19.76
2023-05-12T06:03:20.157Z,20.16
2023-05-12T06:08:41.741Z,20.54
2023-05-12T06:14:02.629Z,20.78
2023-05-12T06:19:23.686Z,20.84
2023-05-12T06:24:44.820Z,21.07
2023-05-12T06:30:06.332Z,20.87
2023-05-12T06:35:27.722Z,21.64
2023-05-12T06:40:48.217Z,21.15
2023-05-12T06:46:09.247Z,21.37
2023-05-12T06:51:30.138Z,21.76
2023-05-12T06:56:50.866Z,22.31
2023-05-12T07:02:11.456Z,23.22
2023-05-12T07:07:32.424Z,23.94
2023-05-12T07:12:53.493Z,25.22
2023-05-12T07:18:14.181Z,25.25
2023-05-12T07:23:35.148Z,27.23
2023-05-12T07:28:56.141Z,28.07
2023-05-12T07:34:16.851Z,29.94
2023-05-12T07:39:38.548Z,30.17
2023-05-12T07:44:59.705Z,31.91
2023-05-12T07:50:21.441Z,33.48
2023-05-12T07:55:43.584Z,32.04
2023-05-12T08:01:06.826Z,32.53
2023-05-12T08:06:27.647Z,34.14
2023-05-12T08:11:51.588Z,35.48
2023-05-12T08:17:12.815Z,33.71
2023-05-12T08:22:33.914Z,32.31
2023-05-12T08:27:54.498Z,34.32
2023-05-12T08:33:15.335Z,35.10
2023-05-12T08:38:36.284Z,33.62
2023-05-12T08:43:57.571Z,32.46
2023-05-12T08:49:21.150Z,27.85
2023-05-12T08:54:52.642Z,28.10
2023-05-12T09:00:18.755Z,28.52
2023-05-12T09:05:39.934Z,26.77
2023-05-12T09:11:00.780Z,26.10
2023-05-12T09:16:25.450Z,25.12
2023-05-12T09:21:47.542Z,27.81
2023-05-12T09:27:12.102Z,26.99
2023-05-12T09:32:34.743Z,27.01
2023-05-12T09:37:56.472Z,26.05
2023-05-12T09:43:19.737Z,25.56
2023-05-12T09:48:41.320Z,23.37
2023-05-12T09:54:03.348Z,22.44
2023-05-12T09:59:31.297Z,22.11
2023-05-12T10:04:58.323Z,22.85
2023-05-12T10:10:22.724Z,23.10
2023-05-12T10:15:44.434Z,22.90
2023-05-12T10:21:05.968Z,23.57
2023-05-12T10:26:27.955Z,22.54
2023-05-12T10:31:49.763Z,23.06
2023-05-12T10:37:11.666Z,24.23
2023-05-12T10:42:43.332Z,24.55
2023-05-12T10:48:07.277Z,23.84
2023-05-12T10:53:41.357Z,22.90
2023-05-12T10:59:20.254Z,22.03
2023-05-12T11:04:50.366Z,20.87
2023-05-12T11:10:13.310Z,19.78
2023-05-12T11:15:34.770Z,19.19
2023-05-12T11:20:55.661Z,19.45
2023-05-12T11:26:18.672Z,20.77
2023-05-12T11:31:40.429Z,22.84
2023-05-12T11:37:03.639Z,23.01
2023-05-12T11:42:25.954Z,22.17
2023-05-12T11:47:47.322Z,22.45
2023-05-12T11:53:14.688Z,22.90
2023-05-12T11:58:36.000Z,23.90
2023-05-12T12:03:57.379Z,23.17
2023-05-12T12:09:18.964Z,21.93
2023-05-12T12:14:41.529Z,21.05
2023-05-12T12:20:02.311Z,20.62
2023-05-12T12:25:23.381Z,21.01
2023-05-12T12:30:44.434Z,21.59
2023-05-12T12:36:05.747Z,21.67
2023-05-12T12:41:26.402Z,20.63
2023-05-12T12:46:47.381Z,20.13
2023-05-12T12:52:08.051Z,20.18
2023-05-12T12:57:29.005Z,20.32
2023-05-12T13:02:50.865Z,20.92
2023-05-12T13:08:12.195Z,21.10
2023-05-12T13:13:33.268Z,21.42
2023-05-12T13:18:54.507Z,21.74
2023-05-12T13:24:15.828Z,21.28
2023-05-12T13:29:37.280Z,20.77
2023-05-12T13:34:58.590Z,20.47
2023-05-12T13:40:19.508Z,20.41
2023-05-12T13:45:40.784Z,20.41
2023-05-12T13:51:01.884Z,20.48
2023-05-12T13:56:22.692Z,20.47
2023-05-12T14:01:44.453Z,20.38
2023-05-12T14:07:08.321Z,20.69
2023-05-12T14:12:29.500Z,21.01
2023-05-12T14:17:50.835Z,20.92
2023-05-12T14:23:12.251Z,20.12
2023-05-12T14:28:33.362Z,19.41
2023-05-12T14:33:55.862Z,19.34
2023-05-12T14:39:17.817Z,19.06
2023-05-12T14:44:39.316Z,18.67
2023-05-12T14:50:00.582Z,18.55
2023-05-12T14:55:21.619Z,18.45
2023-05-12T15:00:42.447Z,18.25
2023-05-12T15:06:06.842Z,18.20
2023-05-12T15:11:27.792Z,18.26
2023-05-12T15:16:48.750Z,18.34
2023-05-12T15:22:09.517Z,18.45
2023-05-12T15:27:34.283Z,18.16
2023-05-12T15:32:55.267Z,17.91
2023-05-12T15:38:15.984Z,17.74
2023-05-12T15:43:38.958Z,17.46
2023-05-12T15:48:59.784Z,17.43
2023-05-12T15:54:21.503Z,17.36
2023-05-12T15:59:42.251Z,17.38
2023-05-12T16:05:02.892Z,17.33
2023-05-12T16:10:23.518Z,17.39
2023-05-12T16:15:44.201Z,17.23
2023-05-12T16:21:05.328Z,17.21
2023-05-12T16:26:26.774Z,17.36
2023-05-12T16:31:50.478Z,17.31
2023-05-12T16:37:11.041Z,17.10
2023-05-12T16:42:31.609Z,16.77
2023-05-12T16:47:52.385Z,16.49
2023-05-12T16:53:13.042Z,16.35
2023-05-12T16:58:33.742Z,16.14
2023-05-12T17:03:54.512Z,15.81
2023-05-12T17:09:15.010Z,15.73
2023-05-12T17:14:35.449Z,15.70
2023-05-12T17:19:56.374Z,15.58
2023-05-12T17:25:21.320Z,15.49
2023-05-12T17:30:43.094Z,15.38
2023-05-12T17:36:12.178Z,15.26
2023-05-12T17:41:33.352Z,15.11
2023-05-12T17:46:54.259Z,14.94
2023-05-12T17:52:15.035Z,14.85
2023-05-12T17:57:35.767Z,14.71
2023-05-12T18:02:56.963Z,14.56
2023-05-12T18:08:17.671Z,14.50
2023-05-12T18:13:38.466Z,14.27
2023-05-12T18:18:59.243Z,14.01
2023-05-12T18:24:20.312Z,13.87
2023-05-12T18:29:41.253Z,13.80
2023-05-12T18:35:02.209Z,13.83
2023-05-12T18:40:22.883Z,13.71
2023-05-12T18:45:43.546Z,13.68
2023-05-12T18:51:04.247Z,13.71
2023-05-12T18:56:24.885Z,13.67
2023-05-12T19:01:45.745Z,13.63
2023-05-12T19:07:09.662Z,13.58
2023-05-12T19:12:30.977Z,13.51
2023-05-12T19:17:51.552Z,13.46
2023-05-12T19:23:12.248Z,13.42
2023-05-12T19:28:32.818Z,13.35
2023-05-12T19:33:53.590Z,13.20
2023-05-12T19:39:14.155Z,13.04
2023-05-12T19:44:34.719Z,12.93
2023-05-12T19:49:55.385Z,12.73
2023-05-12T19:55:16.590Z,12.70
2023-05-12T20:00:39.274Z,12.62
2023-05-12T20:06:00.257Z,12.58
2023-05-12T20:11:22.167Z,12.68
2023-05-12T20:16:42.911Z,12.78
2023-05-12T20:22:03.574Z,12.71
2023-05-12T20:27:24.119Z,12.76
2023-05-12T20:32:45.866Z,12.85
2023-05-12T20:38:06.977Z,12.89
2023-05-12T20:43:27.756Z,12.84
2023-05-12T20:48:48.446Z,12.72
2023-05-12T20:54:09.071Z,12.73
2023-05-12T20:59:29.829Z,12.70
2023-05-12T21:04:50.416Z,12.63
2023-05-12T21:10:11.494Z,12.61
2023-05-12T21:15:32.317Z,12.55
2023-05-12T21:20:53.083Z,12.46
2023-05-12T21:26:13.506Z,12.57
2023-05-12T21:31:34.115Z,12.59
2023-05-12T21:36:54.832Z,12.52
2023-05-12T21:42:15.509Z,12.56
2023-05-12T21:47:36.125Z,12.59
2023-05-12T21:52:56.686Z,12.65
2023-05-12T21:58:17.234Z,12.66
2023-05-12T22:03:38.772Z,12.72
2023-05-12T22:08:59.160Z,12.75
2023-05-12T22:14:20.826Z,12.64
2023-05-12T22:19:41.533Z,12.66
2023-05-12T22:25:02.390Z,12.61
2023-05-12T22:30:23.986Z,12.69
2023-05-12T22:35:44.804Z,12.72
2023-05-12T22:41:05.468Z,12.70
2023-05-12T22:46:26.726Z,12.66
2023-05-12T22:51:47.288Z,12.77
2023-05-12T22:57:07.809Z,12.84
2023-05-12T23:02:28.373Z,12.81
2023-05-12T23:07:48.801Z,12.79
2023-05-12T23:13:09.231Z,12.74
2023-05-12T23:18:29.740Z,12.58
2023-05-12T23:23:50.496Z,12.55
2023-05-12T23:29:11.197Z,12.57
2023-05-12T23:34:31.807Z,12.57
2023-05-12T23:39:52.450Z,12.59
2023-05-12T23:45:12.992Z,12.66
2023-05-12T23:50:33.524Z,12.61
2023-05-12T23:55:54.107Z,12.59
